createdAt,value
2019-06-26T02:09:30.210Z,32.00
2019-06-26T02:12:00.524Z,32.20
2019-06-26T02:14:31.783Z,32.30
2019-06-26T02:17:01.717Z,32.40
2019-06-26T02:19:31.635Z,32.60
2019-06-26T02:22:02.464Z,32.70
2019-06-26T02:24:32.588Z,32.80
2019-06-26T02:27:02.341Z,32.90
2019-06-26T02:29:32.319Z,33.00
2019-06-26T02:32:02.429Z,33.10
2019-06-26T02:34:33.598Z,33.10
2019-06-26T02:37:03.487Z,33.20
2019-06-26T02:39:33.455Z,33.30
2019-06-26T02:42:03.217Z,33.30
2019-06-26T02:44:51.356Z,33.30
2019-06-26T02:47:18.164Z,33.30
2019-06-26T02:49:35.512Z,33.30
2019-06-26T02:52:05.227Z,33.30
2019-06-26T02:54:35.276Z,33.40
2019-06-26T02:57:05.161Z,33.50
2019-06-26T02:59:35.279Z,33.50
2019-06-26T03:02:05.500Z,33.60
2019-06-26T03:04:36.893Z,33.60
2019-06-26T03:07:07.682Z,33.70
2019-06-26T03:09:38.399Z,33.90
2019-06-26T03:12:08.550Z,34.00
2019-06-26T03:14:40.401Z,34.10
2019-06-26T03:17:10.781Z,34.20
2019-06-26T03:19:40.237Z,34.20
2019-06-26T03:22:10.020Z,34.30
2019-06-26T03:24:39.721Z,34.40
2019-06-26T03:27:09.446Z,34.50
2019-06-26T03:29:39.043Z,34.60
2019-06-26T03:32:09.201Z,34.70
2019-06-26T03:34:39.199Z,34.90
2019-06-26T03:37:08.801Z,35.00
2019-06-26T03:39:39.115Z,35.20
2019-06-26T03:42:08.791Z,35.30
2019-06-26T03:44:38.277Z,35.40
2019-06-26T03:47:08.156Z,35.50
2019-06-26T03:49:37.865Z,35.70
2019-06-26T03:52:07.781Z,35.90
2019-06-26T03:54:37.901Z,36.00
2019-06-26T03:57:08.224Z,36.10
2019-06-26T03:59:39.088Z,36.20
2019-06-26T04:02:09.387Z,36.30
2019-06-26T04:04:38.969Z,36.40
2019-06-26T04:07:08.383Z,36.50
2019-06-26T04:09:38.165Z,36.50
2019-06-26T04:12:07.858Z,36.50
2019-06-26T04:14:37.828Z,36.60
2019-06-26T04:17:07.948Z,36.70
2019-06-26T04:19:37.762Z,36.70
2019-06-26T04:22:08.714Z,36.80
2019-06-26T04:24:38.558Z,36.90
2019-06-26T04:27:08.249Z,37.00
2019-06-26T04:29:38.029Z,37.10
2019-06-26T04:32:08.355Z,37.30
2019-06-26T04:34:39.291Z,37.40
2019-06-26T04:37:08.992Z,37.40
2019-06-26T04:39:40.310Z,37.40
2019-06-26T04:42:10.266Z,37.50
2019-06-26T04:44:40.933Z,37.50
2019-06-26T04:47:10.394Z,37.50
2019-06-26T04:49:39.829Z,37.50
2019-06-26T04:52:09.186Z,37.60
2019-06-26T04:54:39.136Z,37.70
2019-06-26T04:57:08.514Z,37.80
2019-06-26T04:59:38.522Z,37.70
2019-06-26T05:02:09.898Z,37.80
2019-06-26T05:04:40.762Z,37.90
2019-06-26T05:07:10.219Z,38.00
2019-06-26T05:09:39.719Z,38.00
2019-06-26T05:12:10.984Z,38.10
2019-06-26T05:14:42.016Z,38.20
2019-06-26T05:17:15.276Z,38.40
2019-06-26T05:19:45.228Z,38.50
2019-06-26T05:22:15.650Z,38.50
2019-06-26T05:24:46.523Z,38.40
2019-06-26T05:27:16.709Z,38.30
2019-06-26T05:29:46.241Z,38.10
2019-06-26T05:32:16.532Z,37.90
2019-06-26T05:34:48.184Z,37.80
2019-06-26T05:37:17.907Z,37.60
2019-06-26T05:39:47.818Z,37.50
2019-06-26T05:42:17.841Z,37.30
2019-06-26T05:44:47.843Z,37.20
2019-06-26T05:47:17.869Z,37.10
2019-06-26T05:49:47.164Z,37.10
2019-06-26T05:52:17.080Z,37.10
2019-06-26T05:54:47.098Z,37.00
2019-06-26T05:57:17.822Z,37.10
2019-06-26T05:59:47.335Z,37.10
2019-06-26T06:02:17.553Z,37.20
2019-06-26T06:04:47.381Z,37.30
2019-06-26T06:07:17.004Z,37.50
2019-06-26T06:09:46.750Z,37.70
2019-06-26T06:12:16.422Z,37.90
2019-06-26T06:14:46.114Z,38.10
2019-06-26T06:17:15.919Z,38.30
2019-06-26T06:19:45.834Z,38.30
2019-06-26T06:22:15.649Z,38.30
2019-06-26T06:24:45.486Z,38.40
2019-06-26T06:27:15.162Z,38.40
2019-06-26T06:29:44.564Z,38.50
2019-06-26T06:32:14.697Z,38.50
2019-06-26T06:34:44.602Z,38.40
2019-06-26T06:37:15.345Z,38.40
2019-06-26T06:39:45.355Z,38.30
2019-06-26T06:42:15.590Z,38.30
2019-06-26T06:44:45.176Z,38.40
2019-06-26T06:47:15.386Z,38.50
2019-06-26T06:49:45.466Z,38.50
2019-06-26T06:52:16.743Z,38.60
2019-06-26T06:54:46.922Z,38.60
2019-06-26T06:57:16.390Z,38.70
2019-06-26T06:59:48.972Z,38.70
2019-06-26T07:02:18.642Z,38.80
2019-06-26T07:04:49.498Z,38.80
2019-06-26T07:07:19.154Z,39.00
2019-06-26T07:09:49.149Z,39.00
2019-06-26T07:12:20.929Z,39.10
2019-06-26T07:14:50.197Z,39.20
2019-06-26T07:17:21.439Z,39.10
2019-06-26T07:19:51.553Z,39.10
2019-06-26T07:22:20.998Z,39.10
2019-06-26T07:24:52.063Z,39.10
2019-06-26T07:27:21.814Z,39.20
2019-06-26T07:29:51.153Z,39.00
2019-06-26T07:32:21.054Z,39.10
2019-06-26T07:34:50.934Z,39.10
2019-06-26T07:37:20.739Z,39.20
2019-06-26T07:39:50.594Z,39.20
2019-06-26T07:42:20.281Z,39.20
2019-06-26T07:44:50.431Z,39.30
2019-06-26T07:47:23.511Z,39.40
2019-06-26T07:49:52.865Z,39.50
2019-06-26T07:52:22.259Z,39.50
2019-06-26T07:54:56.548Z,39.50
2019-06-26T07:57:26.128Z,39.60
2019-06-26T07:59:55.531Z,39.60
2019-06-26T08:02:25.958Z,39.50
2019-06-26T08:04:58.570Z,39.50
2019-06-26T08:07:27.997Z,39.50
2019-06-26T08:09:58.958Z,39.50
2019-06-26T08:12:28.609Z,39.50
2019-06-26T08:14:58.159Z,39.60
2019-06-26T08:17:27.805Z,39.70
2019-06-26T08:19:57.804Z,39.60
2019-06-26T08:22:27.139Z,39.60
2019-06-26T08:24:58.975Z,39.60
2019-06-26T08:27:28.981Z,39.60
2019-06-26T08:29:58.982Z,39.60
2019-06-26T08:32:29.006Z,39.50
2019-06-26T08:34:59.012Z,39.50
2019-06-26T08:37:29.436Z,39.40
2019-06-26T08:39:59.491Z,39.40
2019-06-26T08:42:28.982Z,39.30
2019-06-26T08:44:58.678Z,39.20
2019-06-26T08:47:29.002Z,39.20
2019-06-26T08:49:58.725Z,39.10
2019-06-26T08:52:28.421Z,39.10
2019-06-26T08:54:58.642Z,39.10
2019-06-26T08:57:28.341Z,39.20
2019-06-26T08:59:57.973Z,39.20
2019-06-26T09:02:27.993Z,39.10
2019-06-26T09:04:57.897Z,39.10
2019-06-26T09:07:27.301Z,39.10
2019-06-26T09:09:57.318Z,39.00
2019-06-26T09:12:26.913Z,39.00
2019-06-26T09:14:56.721Z,39.00
2019-06-26T09:17:27.463Z,39.00
2019-06-26T09:19:57.044Z,39.00
2019-06-26T09:22:28.336Z,38.90
2019-06-26T09:24:58.546Z,38.90
2019-06-26T09:27:30.079Z,38.80
2019-06-26T09:29:59.900Z,38.70
2019-06-26T09:32:29.839Z,38.80
2019-06-26T09:34:59.774Z,38.70
2019-06-26T09:37:29.372Z,38.70
2019-06-26T09:39:59.357Z,38.60
2019-06-26T09:42:29.780Z,38.60
2019-06-26T09:45:03.732Z,38.50
2019-06-26T09:47:33.911Z,38.50
2019-06-26T09:50:03.596Z,38.40
2019-06-26T09:52:35.300Z,38.40
2019-06-26T09:55:06.141Z,38.40
2019-06-26T09:57:38.085Z,38.30
2019-06-26T10:00:07.575Z,38.30
2019-06-26T10:02:37.704Z,38.20
2019-06-26T10:05:07.242Z,38.20
2019-06-26T10:07:41.062Z,38.00
2019-06-26T10:10:13.723Z,37.90
2019-06-26T10:12:43.746Z,37.80
2019-06-26T10:15:13.509Z,37.70
2019-06-26T10:17:43.734Z,37.50
2019-06-26T10:20:13.446Z,37.50
2019-06-26T10:22:43.366Z,37.40
2019-06-26T10:25:15.861Z,37.30
2019-06-26T10:27:45.519Z,37.20
2019-06-26T10:30:15.561Z,37.10
2019-06-26T10:32:46.214Z,37.10
2019-06-26T10:35:16.110Z,36.90
2019-06-26T10:37:48.072Z,36.80
2019-06-26T10:40:19.790Z,36.70
2019-06-26T10:42:51.184Z,36.60
2019-06-26T10:45:23.082Z,36.60
2019-06-26T10:47:54.668Z,36.50
2019-06-26T10:50:25.844Z,36.40
2019-06-26T10:52:57.389Z,36.30
2019-06-26T10:55:28.892Z,36.20
2019-06-26T10:58:00.444Z,36.10
2019-06-26T11:00:32.833Z,36.00
2019-06-26T11:03:03.941Z,35.90
2019-06-26T11:05:34.917Z,35.80
2019-06-26T11:08:06.167Z,35.70
2019-06-26T11:10:37.492Z,35.60
2019-06-26T11:13:08.655Z,35.50
2019-06-26T11:15:39.969Z,35.50
2019-06-26T11:18:11.148Z,35.40
2019-06-26T11:20:42.492Z,35.30
2019-06-26T11:23:13.515Z,35.20
2019-06-26T11:25:44.830Z,35.20
2019-06-26T11:28:15.699Z,35.10
2019-06-26T11:30:47.641Z,35.00
2019-06-26T11:33:19.062Z,34.90
2019-06-26T11:35:50.315Z,34.90
2019-06-26T11:38:21.383Z,34.80
2019-06-26T11:40:53.760Z,34.70
2019-06-26T11:43:24.885Z,34.60
2019-06-26T11:45:56.170Z,34.60
2019-06-26T11:48:27.314Z,34.50
2019-06-26T11:50:58.463Z,34.40
2019-06-26T11:53:29.452Z,34.30
2019-06-26T11:56:00.807Z,34.30
2019-06-26T11:58:32.009Z,34.20
2019-06-26T12:01:02.868Z,34.30
2019-06-26T12:03:34.714Z,34.20
2019-06-26T12:06:17.784Z,34.20
2019-06-26T12:08:38.557Z,34.10
2019-06-26T12:11:10.178Z,34.00
2019-06-26T12:13:41.192Z,34.00
2019-06-26T12:16:12.296Z,33.90
2019-06-26T12:18:43.393Z,33.90
2019-06-26T12:21:22.605Z,33.80
2019-06-26T12:23:54.177Z,33.80
2019-06-26T12:26:25.427Z,33.70
2019-06-26T12:28:56.499Z,33.70
2019-06-26T12:31:28.262Z,33.60
2019-06-26T12:34:01.027Z,33.60
2019-06-26T12:36:32.124Z,33.60
2019-06-26T12:39:08.126Z,33.50
